Time,TemperatureF,DewpointF,PressureIn,WindDirection,WindDirectionDegrees,WindSpeedMPH,WindSpeedGustMPH,Humidity,HourlyPrecipIn,Conditions,Clouds,dailyrainin,SolarRadiationWatts/m^2,SoftwareType,DateUTC
2013-01-25 00:00:00,13.2,-1.6,29.96,ENE,62,10.0,22.0,51,0.00,,,0.00,0000,Weather View 32 v70,2013-01-25 05:00:00,
2013-01-25 00:02:00,13.2,-1.6,29.97,ENE,73,16.0,22.0,51,0.00,,,0.00,0000,Weather View 32 v70,2013-01-25 05:02:00,
2013-01-25 00:03:00,13.1,-1.7,29.97,ENE,62,12.0,22.0,51,0.00,,,0.00,0000,Weather View 32 v70,2013-01-25 05:03:00,
2013-01-25 00:08:00,13.2,-1.1,29.97,East,79,7.0,23.0,52,0.00,,,0.00,0000,Weather View 32 v70,2013-01-25 05:08:00,
2013-01-25 00:13:00,13.0,-1.4,29.97,NE,39,8.0,23.0,52,0.00,,,0.00,0000,Weather View 32 v70,2013-01-25 05:13:00,
2013-01-25 00:18:00,13.0,-1.4,29.97,NE,39,8.0,23.0,52,0.00,,,0.00,0000,Weather View 32 v70,2013-01-25 05:18:00,
2013-01-25 00:23:00,12.9,-1.5,29.97,NE,56,10.0,24.0,52,0.00,,,0.00,0000,Weather View 32 v70,2013-01-25 05:23:00,
2013-01-25 00:28:00,12.9,-1.1,29.97,NE,56,11.0,24.0,53,0.00,,,0.00,0000,Weather View 32 v70,2013-01-25 05:28:00,
2013-01-25 00:33:00,12.7,-1.2,29.98,NE,51,4.0,24.0,53,0.00,,,0.00,0000,Weather View 32 v70,2013-01-25 05:33:00,
2013-01-25 00:38:00,12.6,-0.9,29.98,NE,51,6.0,24.0,54,0.00,,,0.00,0000,Weather View 32 v70,2013-01-25 05:38:00,
2013-01-25 00:43:00,12.6,-1.3,29.98,NE,51,11.0,24.0,53,0.00,,,0.00,0000,Weather View 32 v70,2013-01-25 05:43:00,
2013-01-25 00:48:00,12.6,-1.3,29.98,NE,45,6.0,24.0,53,0.00,,,0.00,0000,Weather View 32 v70,2013-01-25 05:48:00,
2013-01-25 00:53:00,12.6,-0.5,29.97,NE,45,7.0,24.0,55,0.00,,,0.00,0000,Weather View 32 v70,2013-01-25 05:53:00,
2013-01-25 00:58:00,12.3,-1.2,29.97,East,101,11.0,24.0,54,0.00,,,0.00,0000,Weather View 32 v70,2013-01-25 05:58:00,
2013-01-25 01:03:00,12.5,-0.2,29.97,East,101,15.0,24.0,56,0.00,,,0.00,0000,Weather View 32 v70,2013-01-25 06:03:00,
2013-01-25 01:08:00,12.2,-0.5,29.97,East,84,15.0,24.0,56,0.00,,,0.00,0000,Weather View 32 v70,2013-01-25 06:08:00,
2013-01-25 01:14:00,12.4,-0.7,29.97,ENE,73,21.0,28.0,55,0.00,,,0.00,0000,Weather View 32 v70,2013-01-25 06:14:00,
2013-01-25 01:19:00,12.2,-0.5,29.97,ENE,62,11.0,28.0,56,0.00,,,0.00,0000,Weather View 32 v70,2013-01-25 06:19:00,
2013-01-25 01:24:00,12.3,0.0,29.97,ESE,107,10.0,28.0,57,0.00,,,0.00,0000,Weather View 32 v70,2013-01-25 06:24:00,
2013-01-25 01:29:00,12.3,-0.4,29.97,ENE,73,16.0,28.0,56,0.00,,,0.00,0000,Weather View 32 v70,2013-01-25 06:29:00,
2013-01-25 01:34:00,12.3,0.7,29.97,East,96,12.0,28.0,59,0.00,,,0.00,0000,Weather View 32 v70,2013-01-25 06:34:00,
2013-01-25 01:39:00,12.2,-0.5,29.97,East,79,19.0,30.0,56,0.00,,,0.00,0000,Weather View 32 v70,2013-01-25 06:39:00,
2013-01-25 01:44:00,12.2,-0.1,29.97,NE,51,9.0,30.0,57,0.00,,,0.00,0000,Weather View 32 v70,2013-01-25 06:44:00,
2013-01-25 01:49:00,12.2,-0.1,29.98,ENE,73,14.0,30.0,57,0.00,,,0.00,0000,Weather View 32 v70,2013-01-25 06:49:00,
2013-01-25 01:54:00,12.3,0.3,29.98,ENE,68,14.0,30.0,58,0.00,,,0.00,0000,Weather View 32 v70,2013-01-25 06:54:00,
2013-01-25 01:59:00,12.5,2.6,29.99,NE,56,10.0,30.0,64,0.00,,,0.00,0000,Weather View 32 v70,2013-01-25 06:59:00,
2013-01-25 02:04:00,12.2,0.2,29.99,East,90,9.0,30.0,58,0.00,,,0.00,0000,Weather View 32 v70,2013-01-25 07:04:00,
2013-01-25 02:09:00,12.5,3.6,29.98,NE,51,12.0,30.0,67,0.00,,,0.00,0000,Weather View 32 v70,2013-01-25 07:09:00,
2013-01-25 02:14:00,12.2,0.2,29.98,NNE,28,8.0,30.0,58,0.00,,,0.00,0000,Weather View 32 v70,2013-01-25 07:14:00,
2013-01-25 02:19:00,12.4,2.5,29.98,East,90,14.0,30.0,64,0.00,,,0.00,0000,Weather View 32 v70,2013-01-25 07:19:00,
2013-01-25 02:24:00,12.3,0.3,29.99,SE,135,14.0,30.0,58,0.00,,,0.00,0000,Weather View 32 v70,2013-01-25 07:24:00,
2013-01-25 02:29:00,12.3,1.0,29.99,ENE,68,11.0,30.0,60,0.00,,,0.00,0000,Weather View 32 v70,2013-01-25 07:29:00,
2013-01-25 02:34:00,12.4,0.4,29.98,East,96,12.0,30.0,58,0.00,,,0.00,0000,Weather View 32 v70,2013-01-25 07:34:00,
2013-01-25 02:39:00,12.1,0.5,29.98,ENE,62,9.0,25.0,59,0.00,,,0.00,0000,Weather View 32 v70,2013-01-25 07:39:00,
2013-01-25 02:44:00,12.2,0.9,29.98,ENE,68,8.0,22.0,60,0.00,,,0.00,0000,Weather View 32 v70,2013-01-25 07:44:00,
2013-01-25 02:49:00,12.3,0.3,29.98,NE,56,13.0,22.0,58,0.00,,,0.00,0000,Weather View 32 v70,2013-01-25 07:49:00,
2013-01-25 02:54:00,12.3,0.7,29.97,East,90,13.0,22.0,59,0.00,,,0.00,0000,Weather View 32 v70,2013-01-25 07:54:00,
2013-01-25 02:59:00,12.3,0.3,29.97,ENE,62,7.0,22.0,58,0.00,,,0.00,0000,Weather View 32 v70,2013-01-25 07:59:00,
2013-01-25 03:04:00,12.5,2.3,29.97,NE,39,5.0,22.0,63,0.00,,,0.00,0000,Weather View 32 v70,2013-01-25 08:04:00,
2013-01-25 03:09:00,12.1,0.5,29.97,NE,39,8.0,22.0,59,0.00,,,0.00,0000,Weather View 32 v70,2013-01-25 08:09:00,
2013-01-25 03:14:00,12.2,0.9,29.97,NE,39,8.0,21.0,60,0.00,,,0.00,0000,Weather View 32 v70,2013-01-25 08:14:00,
2013-01-25 03:19:00,12.2,0.2,29.97,NE,45,10.0,21.0,58,0.00,,,0.00,0000,Weather View 32 v70,2013-01-25 08:19:00,
2013-01-25 03:24:00,12.5,2.0,29.98,NNE,17,3.0,21.0,62,0.00,,,0.00,0000,Weather View 32 v70,2013-01-25 08:24:00,
2013-01-25 03:29:00,12.3,0.3,29.98,NE,45,6.0,21.0,58,0.00,,,0.00,0000,Weather View 32 v70,2013-01-25 08:29:00,
2013-01-25 03:34:00,12.4,0.4,29.98,NE,45,6.0,21.0,58,0.00,,,0.00,0000,Weather View 32 v70,2013-01-25 08:34:00,
2013-01-25 03:39:00,12.2,0.6,29.98,ENE,62,11.0,21.0,59,0.00,,,0.00,0000,Weather View 32 v70,2013-01-25 08:39:00,
2013-01-25 03:44:00,12.2,0.6,29.98,NE,39,5.0,21.0,59,0.00,,,0.00,0000,Weather View 32 v70,2013-01-25 08:44:00,
2013-01-25 03:49:00,12.2,0.6,29.98,NE,51,9.0,21.0,59,0.00,,,0.00,0000,Weather View 32 v70,2013-01-25 08:49:00,
2013-01-25 03:54:00,12.1,0.5,29.98,ENE,62,10.0,21.0,59,0.00,,,0.00,0000,Weather View 32 v70,2013-01-25 08:54:00,
2013-01-25 03:59:00,12.3,0.3,29.98,ENE,62,10.0,18.0,58,0.00,,,0.00,0000,Weather View 32 v70,2013-01-25 08:59:00,
2013-01-25 04:04:00,12.1,0.5,29.98,ENE,68,12.0,16.0,59,0.00,,,0.00,0000,Weather View 32 v70,2013-01-25 09:04:00,
2013-01-25 04:09:00,12.2,0.6,29.97,NE,45,8.0,17.0,59,0.00,,,0.00,0000,Weather View 32 v70,2013-01-25 09:09:00,
2013-01-25 04:14:00,12.0,0.7,29.98,NE,51,7.0,17.0,60,0.00,,,0.00,0000,Weather View 32 v70,2013-01-25 09:14:00,
2013-01-25 04:19:00,12.0,0.7,29.98,NE,45,12.0,17.0,60,0.00,,,0.00,0000,Weather View 32 v70,2013-01-25 09:19:00,
2013-01-25 04:24:00,11.7,0.5,29.98,NE,45,5.0,17.0,60,0.00,,,0.00,0000,Weather View 32 v70,2013-01-25 09:24:00,
2013-01-25 04:29:00,11.7,0.5,29.99,NE,45,4.0,17.0,60,0.00,,,0.00,0000,Weather View 32 v70,2013-01-25 09:29:00,
2013-01-25 04:34:00,11.8,0.6,29.98,NE,45,8.0,17.0,60,0.00,,,0.00,0000,Weather View 32 v70,2013-01-25 09:34:00,
2013-01-25 04:39:00,11.6,0.8,29.98,NE,45,6.0,17.0,61,0.00,,,0.00,0000,Weather View 32 v70,2013-01-25 09:39:00,
2013-01-25 04:44:00,11.6,0.8,29.99,NE,39,14.0,17.0,61,0.00,,,0.00,0000,Weather View 32 v70,2013-01-25 09:44:00,
2013-01-25 04:49:00,11.7,0.9,29.98,NE,51,8.0,17.0,61,0.00,,,0.00,0000,Weather View 32 v70,2013-01-25 09:49:00,
2013-01-25 04:54:00,11.6,0.8,29.99,NE,51,8.0,17.0,61,0.00,,,0.00,0000,Weather View 32 v70,2013-01-25 09:54:00,
2013-01-25 04:59:00,11.7,0.9,29.98,NE,51,9.0,17.0,61,0.00,,,0.00,0000,Weather View 32 v70,2013-01-25 09:59:00,
2013-01-25 05:04:00,11.6,0.8,29.98,NE,45,10.0,17.0,61,0.00,,,0.00,0000,Weather View 32 v70,2013-01-25 10:04:00,
2013-01-25 05:09:00,11.6,0.8,29.98,ENE,62,10.0,17.0,61,0.00,,,0.00,0000,Weather View 32 v70,2013-01-25 10:09:00,
2013-01-25 05:14:00,11.6,0.8,29.98,ENE,62,11.0,17.0,61,0.00,,,0.00,0000,Weather View 32 v70,2013-01-25 10:14:00,
2013-01-25 05:19:00,11.5,0.7,29.98,NE,56,9.0,17.0,61,0.00,,,0.00,0000,Weather View 32 v70,2013-01-25 10:19:00,
2013-01-25 05:25:00,11.6,1.1,29.97,ENE,68,16.0,17.0,62,0.00,,,0.00,0000,Weather View 32 v70,2013-01-25 10:25:00,
2013-01-25 05:30:00,11.5,1.0,29.97,ENE,62,12.0,18.0,62,0.00,,,0.00,0000,Weather View 32 v70,2013-01-25 10:30:00,
2013-01-25 05:35:00,11.5,1.4,29.98,ENE,62,13.0,18.0,63,0.00,,,0.00,0000,Weather View 32 v70,2013-01-25 10:35:00,
2013-01-25 05:40:00,11.4,1.2,29.98,ENE,62,14.0,18.0,63,0.00,,,0.00,0000,Weather View 32 v70,2013-01-25 10:40:00,
2013-01-25 05:45:00,11.4,1.2,29.98,ENE,62,10.0,18.0,63,0.00,,,0.00,0000,Weather View 32 v70,2013-01-25 10:45:00,
2013-01-25 05:50:00,11.5,1.4,29.98,ENE,62,10.0,18.0,63,0.00,,,0.00,0000,Weather View 32 v70,2013-01-25 10:50:00,
2013-01-25 05:55:00,11.5,1.4,29.97,ENE,62,8.0,18.0,63,0.00,,,0.00,0000,Weather View 32 v70,2013-01-25 10:55:00,
2013-01-25 06:00:00,11.5,1.4,29.98,NE,56,13.0,18.0,63,0.00,,,0.00,0000,Weather View 32 v70,2013-01-25 11:00:00,
2013-01-25 06:05:00,11.4,1.6,29.97,NE,56,12.0,18.0,64,0.00,,,0.00,0000,Weather View 32 v70,2013-01-25 11:05:00,
2013-01-25 06:10:00,11.5,1.4,29.98,NE,56,9.0,18.0,63,0.00,,,0.00,0000,Weather View 32 v70,2013-01-25 11:10:00,
2013-01-25 06:15:00,11.5,1.7,29.98,ENE,62,12.0,18.0,64,0.00,,,0.00,0000,Weather View 32 v70,2013-01-25 11:15:00,
2013-01-25 06:20:00,11.5,1.4,29.98,NE,51,11.0,18.0,63,0.00,,,0.00,0000,Weather View 32 v70,2013-01-25 11:20:00,
2013-01-25 06:25:00,11.6,1.4,29.98,NE,56,8.0,18.0,63,0.00,,,0.00,0000,Weather View 32 v70,2013-01-25 11:25:00,
2013-01-25 06:30:00,11.6,1.4,29.98,NE,56,14.0,17.0,63,0.00,,,0.00,0000,Weather View 32 v70,2013-01-25 11:30:00,
2013-01-25 06:35:00,11.6,1.4,29.99,NE,51,9.0,17.0,63,0.00,,,0.00,0000,Weather View 32 v70,2013-01-25 11:35:00,
2013-01-25 06:40:00,11.5,1.7,29.99,NE,51,9.0,17.0,64,0.00,,,0.00,0000,Weather View 32 v70,2013-01-25 11:40:00,
2013-01-25 06:45:00,11.6,1.4,29.99,NE,51,9.0,17.0,63,0.00,,,0.00,0000,Weather View 32 v70,2013-01-25 11:45:00,
2013-01-25 06:50:00,11.6,1.8,29.98,NE,51,12.0,17.0,64,0.00,,,0.00,0000,Weather View 32 v70,2013-01-25 11:50:00,
2013-01-25 06:55:00,11.6,1.4,29.99,NE,51,12.0,17.0,63,0.00,,,0.00,0000,Weather View 32 v70,2013-01-25 11:55:00,
2013-01-25 07:00:00,11.5,1.7,29.99,NE,51,14.0,17.0,64,0.00,,,0.00,0000,Weather View 32 v70,2013-01-25 12:00:00,
2013-01-25 07:05:00,11.5,1.7,29.98,NE,51,8.0,17.0,64,0.00,,,0.00,0000,Weather View 32 v70,2013-01-25 12:05:00,
2013-01-25 07:10:00,11.5,1.7,29.98,NE,51,9.0,17.0,64,0.00,,,0.00,0000,Weather View 32 v70,2013-01-25 12:10:00,
2013-01-25 07:15:00,11.5,2.0,29.99,NE,51,9.0,17.0,65,0.00,,,0.00,0000,Weather View 32 v70,2013-01-25 12:15:00,
2013-01-25 07:20:00,11.4,1.9,29.99,NE,51,6.0,16.0,65,0.00,,,0.00,0000,Weather View 32 v70,2013-01-25 12:20:00,
2013-01-25 07:25:00,11.5,2.0,29.99,NE,45,9.0,16.0,65,0.00,,,0.00,0008,Weather View 32 v70,2013-01-25 12:25:00,
2013-01-25 07:30:00,11.6,1.8,29.98,NE,51,7.0,16.0,64,0.00,,,0.00,0008,Weather View 32 v70,2013-01-25 12:30:00,
2013-01-25 07:35:00,11.7,1.9,29.99,NE,51,10.0,16.0,64,0.00,,,0.00,0016,Weather View 32 v70,2013-01-25 12:35:00,
2013-01-25 07:40:00,11.7,1.9,29.98,NE,51,11.0,16.0,64,0.00,,,0.00,0016,Weather View 32 v70,2013-01-25 12:40:00,
2013-01-25 07:45:00,11.8,1.7,29.98,NE,45,9.0,16.0,63,0.00,,,0.00,0024,Weather View 32 v70,2013-01-25 12:45:00,
2013-01-25 07:50:00,12.0,1.8,29.98,NE,56,9.0,15.0,63,0.00,,,0.00,0032,Weather View 32 v70,2013-01-25 12:50:00,
2013-01-25 07:55:00,12.1,1.9,29.99,NE,56,10.0,15.0,63,0.00,,,0.00,0040,Weather View 32 v70,2013-01-25 12:55:00,
2013-01-25 08:00:00,12.1,1.9,29.98,NE,56,10.0,14.0,63,0.00,,,0.00,0048,Weather View 32 v70,2013-01-25 13:00:00,
2013-01-25 08:05:00,12.2,2.3,29.97,NE,56,13.0,14.0,64,0.00,,,0.00,0056,Weather View 32 v70,2013-01-25 13:05:00,
2013-01-25 08:10:00,12.3,3.7,29.97,NE,56,9.0,14.0,68,0.00,,,0.00,0056,Weather View 32 v70,2013-01-25 13:10:00,
2013-01-25 08:15:00,12.4,2.2,29.97,NE,56,10.0,14.0,63,0.00,,,0.00,0072,Weather View 32 v70,2013-01-25 13:15:00,
2013-01-25 08:20:00,12.5,2.6,29.97,NE,51,11.0,14.0,64,0.00,,,0.00,0088,Weather View 32 v70,2013-01-25 13:20:00,
2013-01-25 08:25:00,13.1,2.8,29.97,ENE,62,11.0,14.0,63,0.00,,,0.00,0112,Weather View 32 v70,2013-01-25 13:25:00,
2013-01-25 08:30:00,13.8,3.1,29.97,ENE,62,5.0,14.0,62,0.00,,,0.00,0120,Weather View 32 v70,2013-01-25 13:30:00,
2013-01-25 08:35:00,13.9,5.2,29.97,ENE,62,2.0,14.0,68,0.00,,,0.00,0112,Weather View 32 v70,2013-01-25 13:35:00,
2013-01-25 08:40:00,14.4,3.1,29.97,ENE,62,4.0,14.0,60,0.00,,,0.00,0136,Weather View 32 v70,2013-01-25 13:40:00,
2013-01-25 08:45:00,14.7,3.6,29.97,ENE,62,2.0,14.0,61,0.00,,,0.00,0136,Weather View 32 v70,2013-01-25 13:45:00,
2013-01-25 08:50:00,14.3,3.0,29.97,NE,56,5.0,14.0,60,0.00,,,0.00,0128,Weather View 32 v70,2013-01-25 13:50:00,
2013-01-25 08:55:00,14.9,5.6,29.97,ENE,62,7.0,14.0,66,0.00,,,0.00,0136,Weather View 32 v70,2013-01-25 13:55:00,
2013-01-25 09:00:00,14.3,2.6,29.97,ENE,62,7.0,14.0,59,0.00,,,0.00,0136,Weather View 32 v70,2013-01-25 14:00:00,
2013-01-25 09:05:00,14.9,6.2,29.97,NE,56,5.0,14.0,68,0.00,,,0.00,0128,Weather View 32 v70,2013-01-25 14:05:00,
2013-01-25 09:10:00,14.8,2.7,29.97,NE,56,4.0,13.0,58,0.00,,,0.00,0128,Weather View 32 v70,2013-01-25 14:10:00,
2013-01-25 09:15:00,14.3,2.2,29.97,NE,56,7.0,13.0,58,0.00,,,0.00,0136,Weather View 32 v70,2013-01-25 14:15:00,
2013-01-25 09:20:00,15.1,3.0,29.97,ENE,62,6.0,13.0,58,0.00,,,0.00,0128,Weather View 32 v70,2013-01-25 14:20:00,
2013-01-25 09:25:00,14.7,1.8,29.97,ENE,62,6.0,13.0,56,0.00,,,0.00,0144,Weather View 32 v70,2013-01-25 14:25:00,
2013-01-25 09:30:00,15.4,3.7,29.97,NE,56,3.0,13.0,59,0.00,,,0.00,0176,Weather View 32 v70,2013-01-25 14:30:00,
2013-01-25 09:35:00,16.3,3.8,29.97,NE,56,1.0,12.0,57,0.00,,,0.00,0176,Weather View 32 v70,2013-01-25 14:35:00,
2013-01-25 09:40:00,15.7,2.4,29.97,NE,56,4.0,12.0,55,0.00,,,0.00,0176,Weather View 32 v70,2013-01-25 14:40:00,
2013-01-25 09:45:00,16.2,2.5,29.97,NE,56,3.0,12.0,54,0.00,,,0.00,0192,Weather View 32 v70,2013-01-25 14:45:00,
2013-01-25 09:50:00,16.2,2.5,29.97,ENE,62,4.0,12.0,54,0.00,,,0.00,0200,Weather View 32 v70,2013-01-25 14:50:00,
2013-01-25 09:55:00,16.7,2.5,29.97,NE,56,2.0,12.0,53,0.00,,,0.00,0208,Weather View 32 v70,2013-01-25 14:55:00,
2013-01-25 10:00:00,16.6,2.4,29.97,NE,56,3.0,10.0,53,0.00,,,0.00,0224,Weather View 32 v70,2013-01-25 15:00:00,
2013-01-25 10:05:00,18.3,5.9,29.97,North,349,3.0,10.0,58,0.00,,,0.00,0200,Weather View 32 v70,2013-01-25 15:05:00,
2013-01-25 10:10:00,17.1,2.5,29.97,North,354,2.0,9.0,52,0.00,,,0.00,0216,Weather View 32 v70,2013-01-25 15:10:00,
2013-01-25 10:15:00,16.9,3.9,29.97,NNE,23,4.0,9.0,56,0.00,,,0.00,0224,Weather View 32 v70,2013-01-25 15:15:00,
2013-01-25 10:20:00,17.0,2.8,29.97,NNE,23,3.0,9.0,53,0.00,,,0.00,0256,Weather View 32 v70,2013-01-25 15:20:00,
2013-01-25 10:25:00,16.3,1.8,29.97,NNE,28,6.0,9.0,52,0.00,,,0.00,0264,Weather View 32 v70,2013-01-25 15:25:00,
2013-01-25 10:30:00,18.0,6.8,29.96,NNE,28,4.0,8.0,61,0.00,,,0.00,0272,Weather View 32 v70,2013-01-25 15:30:00,
2013-01-25 10:35:00,17.9,2.4,29.96,NNE,23,2.0,8.0,50,0.00,,,0.00,0280,Weather View 32 v70,2013-01-25 15:35:00,
2013-01-25 10:40:00,18.6,4.3,29.96,NE,34,3.0,8.0,53,0.00,,,0.00,0272,Weather View 32 v70,2013-01-25 15:40:00,
2013-01-25 10:45:00,18.0,2.1,29.95,NNE,23,4.0,8.0,49,0.00,,,0.00,0296,Weather View 32 v70,2013-01-25 15:45:00,
2013-01-25 10:50:00,18.3,2.3,29.95,NNE,28,4.0,8.0,49,0.00,,,0.00,0304,Weather View 32 v70,2013-01-25 15:50:00,
2013-01-25 10:55:00,19.2,3.1,29.94,NNE,28,2.0,8.0,49,0.00,,,0.00,0312,Weather View 32 v70,2013-01-25 15:55:00,
2013-01-25 11:00:00,18.9,2.5,29.94,NNE,28,4.0,8.0,48,0.00,,,0.00,0352,Weather View 32 v70,2013-01-25 16:00:00,
2013-01-25 11:05:00,20.3,2.3,29.93,NNE,28,2.0,8.0,45,0.00,,,0.00,0384,Weather View 32 v70,2013-01-25 16:05:00,
2013-01-25 11:10:00,20.8,2.8,29.93,NNE,28,1.0,8.0,45,0.00,,,0.00,0384,Weather View 32 v70,2013-01-25 16:10:00,
2013-01-25 11:15:00,20.2,2.2,29.92,NNE,28,3.0,8.0,45,0.00,,,0.00,0392,Weather View 32 v70,2013-01-25 16:15:00,
2013-01-25 11:20:00,21.2,3.1,29.91,NNE,28,4.0,8.0,45,0.00,,,0.00,0424,Weather View 32 v70,2013-01-25 16:20:00,
2013-01-25 11:25:00,21.5,0.9,29.91,NE,34,1.0,8.0,40,0.00,,,0.00,0416,Weather View 32 v70,2013-01-25 16:25:00,
2013-01-25 11:30:00,20.2,1.2,29.90,NNE,28,2.0,6.0,43,0.00,,,0.00,0448,Weather View 32 v70,2013-01-25 16:30:00,
2013-01-25 11:35:00,22.4,5.7,29.89,NNE,28,1.0,6.0,48,0.00,,,0.00,0432,Weather View 32 v70,2013-01-25 16:35:00,
2013-01-25 11:40:00,22.5,4.9,29.88,NNE,28,1.0,6.0,46,0.00,,,0.00,0360,Weather View 32 v70,2013-01-25 16:40:00,
2013-01-25 11:45:00,21.7,3.7,29.88,NNE,28,2.0,6.0,45,0.00,,,0.00,0352,Weather View 32 v70,2013-01-25 16:45:00,
2013-01-25 11:50:00,21.7,3.7,29.88,NNE,28,3.0,6.0,45,0.00,,,0.00,0336,Weather View 32 v70,2013-01-25 16:50:00,
2013-01-25 11:55:00,23.8,6.5,29.87,NNE,28,3.0,6.0,47,0.00,,,0.00,0328,Weather View 32 v70,2013-01-25 16:55:00,
2013-01-25 12:00:00,22.2,5.0,29.86,NNE,28,1.0,6.0,47,0.00,,,0.00,0320,Weather View 32 v70,2013-01-25 17:00:00,
2013-01-25 12:05:00,21.1,4.0,29.85,NNE,28,1.0,6.0,47,0.00,,,0.00,0320,Weather View 32 v70,2013-01-25 17:05:00,
2013-01-25 12:10:00,20.7,4.6,29.86,NNE,28,3.0,6.0,49,0.00,,,0.00,0312,Weather View 32 v70,2013-01-25 17:10:00,
2013-01-25 12:15:00,23.1,6.3,29.86,NNE,28,2.0,6.0,48,0.00,,,0.00,0328,Weather View 32 v70,2013-01-25 17:15:00,
2013-01-25 12:20:00,20.7,4.6,29.85,NNE,28,3.0,6.0,49,0.00,,,0.00,0368,Weather View 32 v70,2013-01-25 17:20:00,
2013-01-25 12:25:00,23.8,6.9,29.85,NNE,28,1.0,5.0,48,0.00,,,0.00,0376,Weather View 32 v70,2013-01-25 17:25:00,
2013-01-25 12:30:00,23.1,7.2,29.85,NNE,28,3.0,5.0,50,0.00,,,0.00,0328,Weather View 32 v70,2013-01-25 17:30:00,
2013-01-25 12:35:00,21.1,4.9,29.83,NNE,28,2.0,5.0,49,0.00,,,0.00,0312,Weather View 32 v70,2013-01-25 17:35:00,
2013-01-25 12:40:00,21.0,4.8,29.83,NNE,28,2.0,5.0,49,0.00,,,0.00,0304,Weather View 32 v70,2013-01-25 17:40:00,
2013-01-25 12:45:00,21.5,5.3,29.83,NNE,28,1.0,5.0,49,0.00,,,0.00,0280,Weather View 32 v70,2013-01-25 17:45:00,
2013-01-25 12:50:00,21.1,5.3,29.83,NNE,28,2.0,5.0,50,0.00,,,0.00,0272,Weather View 32 v70,2013-01-25 17:50:00,
2013-01-25 12:55:00,22.1,6.3,29.83,NNE,28,3.0,5.0,50,0.00,,,0.00,0264,Weather View 32 v70,2013-01-25 17:55:00,
2013-01-25 13:00:00,21.3,5.1,29.84,NNE,28,3.0,5.0,49,0.00,,,0.00,0272,Weather View 32 v70,2013-01-25 18:00:00,
2013-01-25 13:05:00,22.0,4.3,29.83,NNE,28,1.0,5.0,46,0.00,,,0.00,0280,Weather View 32 v70,2013-01-25 18:05:00,
2013-01-25 13:10:00,22.8,3.6,29.82,NNE,28,2.0,5.0,43,0.00,,,0.00,0288,Weather View 32 v70,2013-01-25 18:10:00,
2013-01-25 13:15:00,23.4,5.2,29.81,NNE,28,6.0,6.0,45,0.00,,,0.00,0296,Weather View 32 v70,2013-01-25 18:15:00,
2013-01-25 13:20:00,19.7,3.6,29.82,NNE,28,2.0,6.0,49,0.00,,,0.00,0296,Weather View 32 v70,2013-01-25 18:20:00,
2013-01-25 13:25:00,22.6,5.9,29.82,NNE,28,2.0,6.0,48,0.00,,,0.00,0312,Weather View 32 v70,2013-01-25 18:25:00,
2013-01-25 13:30:00,22.1,4.9,29.81,NNE,28,3.0,6.0,47,0.00,,,0.00,0320,Weather View 32 v70,2013-01-25 18:30:00,
2013-01-25 13:35:00,22.6,4.5,29.80,NNE,28,3.0,6.0,45,0.00,,,0.00,0264,Weather View 32 v70,2013-01-25 18:35:00,
2013-01-25 13:40:00,22.1,4.4,29.79,NNE,28,4.0,6.0,46,0.00,,,0.00,0272,Weather View 32 v70,2013-01-25 18:40:00,
2013-01-25 13:45:00,21.3,2.3,29.80,NNE,28,4.0,6.0,43,0.00,,,0.00,0288,Weather View 32 v70,2013-01-25 18:45:00,
2013-01-25 13:50:00,22.2,4.1,29.80,NNE,28,2.0,6.0,45,0.00,,,0.00,0272,Weather View 32 v70,2013-01-25 18:50:00,
2013-01-25 13:55:00,22.3,3.7,29.79,NNE,28,4.0,6.0,44,0.00,,,0.00,0224,Weather View 32 v70,2013-01-25 18:55:00,
2013-01-25 14:00:00,20.2,2.2,29.79,NNE,23,4.0,6.0,45,0.00,,,0.00,0232,Weather View 32 v70,2013-01-25 19:00:00,
2013-01-25 14:05:00,21.7,3.7,29.79,NNE,28,4.0,6.0,45,0.00,,,0.00,0184,Weather View 32 v70,2013-01-25 19:05:00,
2013-01-25 14:10:00,22.3,3.7,29.79,NNE,28,3.0,6.0,44,0.00,,,0.00,0120,Weather View 32 v70,2013-01-25 19:10:00,
2013-01-25 14:15:00,21.0,2.0,29.79,NNW,338,4.0,6.0,43,0.00,,,0.00,0120,Weather View 32 v70,2013-01-25 19:15:00,
2013-01-25 14:20:00,21.1,2.0,29.80,NNW,338,5.0,6.0,43,0.00,,,0.00,0136,Weather View 32 v70,2013-01-25 19:20:00,
2013-01-25 14:25:00,20.2,3.6,29.80,NNW,338,5.0,8.0,48,0.00,,,0.00,0152,Weather View 32 v70,2013-01-25 19:25:00,
2013-01-25 14:30:00,20.8,5.5,29.79,NNW,338,3.0,8.0,51,0.00,,,0.00,0136,Weather View 32 v70,2013-01-25 19:30:00,
2013-01-25 14:35:00,21.3,5.1,29.79,NNW,338,3.0,8.0,49,0.00,,,0.00,0176,Weather View 32 v70,2013-01-25 19:35:00,
2013-01-25 14:40:00,21.5,3.9,29.79,NNW,338,6.0,8.0,46,0.00,,,0.00,0200,Weather View 32 v70,2013-01-25 19:40:00,
2013-01-25 14:45:00,21.9,5.6,29.78,NNW,338,4.0,8.0,49,0.00,,,0.00,0192,Weather View 32 v70,2013-01-25 19:45:00,
2013-01-25 14:50:00,23.0,5.7,29.79,NNW,338,3.0,8.0,47,0.00,,,0.00,0232,Weather View 32 v70,2013-01-25 19:50:00,
2013-01-25 14:55:00,23.8,4.0,29.78,NNW,338,4.0,8.0,42,0.00,,,0.00,0208,Weather View 32 v70,2013-01-25 19:55:00,
2013-01-25 15:00:00,22.8,5.1,29.78,NNW,338,2.0,8.0,46,0.00,,,0.00,0152,Weather View 32 v70,2013-01-25 20:00:00,
2013-01-25 15:05:00,22.5,4.4,29.77,NNW,338,4.0,8.0,45,0.00,,,0.00,0136,Weather View 32 v70,2013-01-25 20:05:00,
2013-01-25 15:10:00,21.0,4.3,29.77,NNW,338,7.0,10.0,48,0.00,,,0.00,0104,Weather View 32 v70,2013-01-25 20:10:00,
2013-01-25 15:15:00,21.3,4.6,29.77,NNW,338,5.0,10.0,48,0.00,,,0.00,0096,Weather View 32 v70,2013-01-25 20:15:00,
2013-01-25 15:20:00,21.0,4.3,29.77,NNW,338,4.0,10.0,48,0.00,,,0.00,0104,Weather View 32 v70,2013-01-25 20:20:00,
2013-01-25 15:25:00,21.5,4.8,29.77,NNW,338,6.0,10.0,48,0.00,,,0.00,0080,Weather View 32 v70,2013-01-25 20:25:00,
2013-01-25 15:30:00,21.3,4.6,29.77,NNW,338,3.0,10.0,48,0.00,,,0.00,0064,Weather View 32 v70,2013-01-25 20:30:00,
2013-01-25 15:35:00,21.9,4.7,29.77,NNW,338,3.0,10.0,47,0.00,,,0.00,0056,Weather View 32 v70,2013-01-25 20:35:00,
2013-01-25 15:40:00,21.6,2.6,29.77,NNW,338,4.0,10.0,43,0.00,,,0.00,0064,Weather View 32 v70,2013-01-25 20:40:00,
2013-01-25 15:45:00,21.6,3.5,29.78,NNW,338,3.0,10.0,45,0.00,,,0.00,0048,Weather View 32 v70,2013-01-25 20:45:00,
2013-01-25 15:50:00,21.9,2.8,29.78,NNW,338,5.0,10.0,43,0.00,,,0.00,0032,Weather View 32 v70,2013-01-25 20:50:00,
2013-01-25 15:55:00,21.9,2.8,29.78,NNW,338,7.0,10.0,43,0.00,,,0.00,0032,Weather View 32 v70,2013-01-25 20:55:00,
2013-01-25 16:00:00,21.7,2.7,29.78,NNE,23,5.0,10.0,43,0.00,,,0.00,0032,Weather View 32 v70,2013-01-25 21:00:00,
2013-01-25 16:05:00,21.9,2.8,29.77,NNE,28,2.0,10.0,43,0.00,,,0.00,0032,Weather View 32 v70,2013-01-25 21:05:00,
2013-01-25 16:10:00,21.7,2.7,29.77,NNE,28,6.0,9.0,43,0.00,,,0.00,0032,Weather View 32 v70,2013-01-25 21:10:00,
2013-01-25 16:15:00,21.6,2.6,29.77,NNE,28,5.0,9.0,43,0.00,,,0.00,0024,Weather View 32 v70,2013-01-25 21:15:00,
2013-01-25 16:20:00,21.6,2.6,29.77,NNE,28,4.0,9.0,43,0.00,,,0.00,0008,Weather View 32 v70,2013-01-25 21:20:00,
2013-01-25 16:25:00,21.6,3.1,29.77,NNE,28,2.0,9.0,44,0.00,,,0.00,0008,Weather View 32 v70,2013-01-25 21:25:00,
2013-01-25 16:30:00,21.7,3.2,29.77,NNE,28,3.0,9.0,44,0.00,,,0.00,0016,Weather View 32 v70,2013-01-25 21:30:00,
2013-01-25 16:35:00,22.0,2.9,29.76,NNE,28,4.0,9.0,43,0.00,,,0.00,0008,Weather View 32 v70,2013-01-25 21:35:00,
2013-01-25 16:40:00,21.9,3.3,29.76,NNE,28,6.0,9.0,44,0.00,,,0.00,0000,Weather View 32 v70,2013-01-25 21:40:00,
2013-01-25 16:45:00,21.6,3.1,29.75,NNE,28,2.0,9.0,44,0.00,,,0.00,0000,Weather View 32 v70,2013-01-25 21:45:00,
2013-01-25 16:50:00,21.6,3.1,29.75,NNE,23,5.0,9.0,44,0.00,,,0.00,0000,Weather View 32 v70,2013-01-25 21:50:00,
2013-01-25 16:55:00,21.9,3.3,29.76,NNE,28,3.0,9.0,44,0.00,,,0.00,0000,Weather View 32 v70,2013-01-25 21:55:00,
2013-01-25 17:00:00,21.9,3.3,29.76,NNE,28,4.0,7.0,44,0.00,,,0.00,0000,Weather View 32 v70,2013-01-25 22:00:00,
2013-01-25 17:05:00,21.7,3.2,29.76,NNE,23,6.0,7.0,44,0.00,,,0.00,0000,Weather View 32 v70,2013-01-25 22:05:00,
2013-01-25 17:10:00,21.7,3.2,29.76,NNE,23,4.0,8.0,44,0.00,,,0.00,0000,Weather View 32 v70,2013-01-25 22:10:00,
2013-01-25 17:15:00,21.3,6.4,29.75,NNE,23,4.0,10.0,52,0.00,,,0.00,0000,Weather View 32 v70,2013-01-25 22:15:00,
2013-01-25 17:20:00,21.2,6.3,29.75,NNE,28,7.0,10.0,52,0.00,,,0.00,0000,Weather View 32 v70,2013-01-25 22:20:00,
2013-01-25 17:25:00,21.1,9.0,29.74,NNE,23,5.0,10.0,59,0.00,,,0.00,0000,Weather View 32 v70,2013-01-25 22:25:00,
2013-01-25 17:30:00,20.8,8.8,29.74,NNE,23,6.0,10.0,59,0.00,,,0.00,0000,Weather View 32 v70,2013-01-25 22:30:00,
2013-01-25 17:35:00,20.4,11.2,29.75,North,6,5.0,12.0,67,0.00,,,0.00,0000,Weather View 32 v70,2013-01-25 22:35:00,
2013-01-25 17:40:00,19.8,12.9,29.74,North,354,6.0,12.0,74,0.00,,,0.00,0000,Weather View 32 v70,2013-01-25 22:40:00,
2013-01-25 17:45:00,19.6,13.9,29.74,North,354,4.0,12.0,78,0.00,,,0.00,0000,Weather View 32 v70,2013-01-25 22:45:00,
2013-01-25 17:50:00,19.3,14.7,29.73,North,354,6.0,12.0,82,0.00,,,0.00,0000,Weather View 32 v70,2013-01-25 22:50:00,
2013-01-25 17:55:00,19.0,15.8,29.73,North,354,7.0,12.0,87,0.00,,,0.00,0000,Weather View 32 v70,2013-01-25 22:55:00,
2013-01-25 18:00:00,18.8,16.1,29.73,North,354,4.0,12.0,89,0.00,,,0.00,0000,Weather View 32 v70,2013-01-25 23:00:00,
2013-01-25 18:05:00,18.8,16.6,29.73,North,354,4.0,12.0,91,0.00,,,0.00,0000,Weather View 32 v70,2013-01-25 23:05:00,
2013-01-25 18:10:00,18.8,16.9,29.72,North,354,3.0,12.0,92,0.00,,,0.00,0000,Weather View 32 v70,2013-01-25 23:10:00,
2013-01-25 18:15:00,18.5,16.5,29.72,North,354,5.0,12.0,92,0.00,,,0.00,0000,Weather View 32 v70,2013-01-25 23:15:00,
2013-01-25 18:20:00,18.5,17.0,29.71,North,354,3.0,12.0,94,0.00,,,0.00,0000,Weather View 32 v70,2013-01-25 23:20:00,
2013-01-25 18:25:00,18.5,17.0,29.71,North,354,5.0,12.0,94,0.00,,,0.00,0000,Weather View 32 v70,2013-01-25 23:25:00,
2013-01-25 18:30:00,18.7,17.5,29.72,North,354,4.0,12.0,95,0.00,,,0.00,0000,Weather View 32 v70,2013-01-25 23:30:00,
2013-01-25 18:35:00,18.9,17.5,29.72,North,354,1.0,12.0,94,0.00,,,0.00,0000,Weather View 32 v70,2013-01-25 23:35:00,
2013-01-25 18:40:00,18.7,17.0,29.71,North,354,2.0,10.0,93,0.00,,,0.00,0000,Weather View 32 v70,2013-01-25 23:40:00,
2013-01-25 18:45:00,18.7,17.0,29.71,North,354,4.0,10.0,93,0.00,,,0.00,0000,Weather View 32 v70,2013-01-25 23:45:00,
2013-01-25 18:50:00,18.8,17.4,29.71,North,354,4.0,10.0,94,0.00,,,0.00,0000,Weather View 32 v70,2013-01-25 23:50:00,
2013-01-25 18:55:00,18.9,17.5,29.71,North,354,2.0,10.0,94,0.00,,,0.00,0000,Weather View 32 v70,2013-01-25 23:55:00,
2013-01-25 19:00:00,18.8,17.4,29.71,North,354,4.0,10.0,94,0.00,,,0.00,0000,Weather View 32 v70,2013-01-26 00:00:00,
2013-01-25 19:05:00,18.6,16.9,29.71,North,354,3.0,10.0,93,0.00,,,0.00,0000,Weather View 32 v70,2013-01-26 00:05:00,
2013-01-25 19:10:00,18.6,17.1,29.71,North,354,4.0,10.0,94,0.00,,,0.00,0000,Weather View 32 v70,2013-01-26 00:10:00,
2013-01-25 19:15:00,18.6,17.4,29.71,North,354,3.0,10.0,95,0.00,,,0.00,0000,Weather View 32 v70,2013-01-26 00:15:00,
2013-01-25 19:20:00,18.6,17.6,29.71,North,354,3.0,7.0,96,0.00,,,0.00,0000,Weather View 32 v70,2013-01-26 00:20:00,
2013-01-25 19:25:00,18.6,17.6,29.71,North,354,6.0,7.0,96,0.00,,,0.00,0000,Weather View 32 v70,2013-01-26 00:25:00,
2013-01-25 19:30:00,18.5,17.3,29.70,North,354,5.0,7.0,95,0.00,,,0.00,0000,Weather View 32 v70,2013-01-26 00:30:00,
2013-01-25 19:35:00,18.5,17.3,29.70,North,354,2.0,7.0,95,0.00,,,0.00,0000,Weather View 32 v70,2013-01-26 00:35:00,
2013-01-25 19:40:00,18.5,17.5,29.70,North,354,2.0,7.0,96,0.00,,,0.00,0000,Weather View 32 v70,2013-01-26 00:40:00,
2013-01-25 19:45:00,18.5,17.5,29.70,North,354,3.0,8.0,96,0.00,,,0.00,0000,Weather View 32 v70,2013-01-26 00:45:00,
2013-01-25 19:50:00,18.4,17.4,29.70,North,354,6.0,8.0,96,0.00,,,0.00,0000,Weather View 32 v70,2013-01-26 00:50:00,
2013-01-25 19:55:00,18.4,17.4,29.70,North,354,7.0,8.0,96,0.00,,,0.00,0000,Weather View 32 v70,2013-01-26 00:55:00,
2013-01-25 20:00:00,18.3,17.3,29.70,North,354,3.0,8.0,96,0.00,,,0.00,0000,Weather View 32 v70,2013-01-26 01:00:00,
2013-01-25 20:05:00,18.3,17.3,29.69,North,354,7.0,8.0,96,0.00,,,0.00,0000,Weather View 32 v70,2013-01-26 01:05:00,
2013-01-25 20:10:00,18.3,17.3,29.69,North,354,3.0,8.0,96,0.00,,,0.00,0000,Weather View 32 v70,2013-01-26 01:10:00,
2013-01-25 20:15:00,18.3,17.3,29.69,North,354,7.0,8.0,96,0.00,,,0.00,0000,Weather View 32 v70,2013-01-26 01:15:00,
2013-01-25 20:20:00,18.1,17.2,29.69,North,354,4.0,8.0,96,0.00,,,0.00,0000,Weather View 32 v70,2013-01-26 01:20:00,
2013-01-25 20:25:00,18.0,17.1,29.69,North,354,8.0,8.0,96,0.00,,,0.00,0000,Weather View 32 v70,2013-01-26 01:25:00,
2013-01-25 20:30:00,18.0,17.1,29.69,North,354,4.0,9.0,96,0.00,,,0.00,0000,Weather View 32 v70,2013-01-26 01:30:00,
2013-01-25 20:35:00,18.0,17.1,29.69,North,354,3.0,9.0,96,0.00,,,0.00,0000,Weather View 32 v70,2013-01-26 01:35:00,
2013-01-25 20:40:00,18.0,17.1,29.69,North,354,5.0,9.0,96,0.00,,,0.00,0000,Weather View 32 v70,2013-01-26 01:40:00,
2013-01-25 20:45:00,18.1,17.2,29.69,North,354,8.0,9.0,96,0.00,,,0.00,0000,Weather View 32 v70,2013-01-26 01:45:00,
2013-01-25 20:50:00,18.0,17.1,29.68,North,354,3.0,9.0,96,0.00,,,0.00,0000,Weather View 32 v70,2013-01-26 01:50:00,
2013-01-25 20:55:00,18.0,17.1,29.68,North,354,3.0,9.0,96,0.00,,,0.00,0000,Weather View 32 v70,2013-01-26 01:55:00,
2013-01-25 21:00:00,18.0,17.1,29.68,North,354,4.0,9.0,96,0.00,,,0.00,0000,Weather View 32 v70,2013-01-26 02:00:00,
2013-01-25 21:05:00,18.0,17.1,29.68,North,354,3.0,9.0,96,0.00,,,0.00,0000,Weather View 32 v70,2013-01-26 02:05:00,
2013-01-25 21:10:00,18.0,17.1,29.68,North,354,4.0,9.0,96,0.00,,,0.00,0000,Weather View 32 v70,2013-01-26 02:10:00,
2013-01-25 21:15:00,18.0,17.3,29.68,North,354,3.0,9.0,97,0.00,,,0.00,0000,Weather View 32 v70,2013-01-26 02:15:00,
2013-01-25 21:20:00,17.9,17.2,29.67,North,354,1.0,9.0,97,0.00,,,0.00,0000,Weather View 32 v70,2013-01-26 02:20:00,
2013-01-25 21:25:00,18.0,17.3,29.67,North,354,3.0,9.0,97,0.00,,,0.00,0000,Weather View 32 v70,2013-01-26 02:25:00,
2013-01-25 21:30:00,17.9,17.2,29.68,North,354,2.0,9.0,97,0.00,,,0.00,0000,Weather View 32 v70,2013-01-26 02:30:00,
2013-01-25 21:35:00,17.8,16.9,29.67,North,354,5.0,9.0,96,0.00,,,0.00,0000,Weather View 32 v70,2013-01-26 02:35:00,
2013-01-25 21:40:00,17.8,16.9,29.67,North,354,3.0,9.0,96,0.00,,,0.00,0000,Weather View 32 v70,2013-01-26 02:40:00,
2013-01-25 21:46:00,17.7,16.7,29.67,North,354,2.0,7.0,96,0.00,,,0.00,0000,Weather View 32 v70,2013-01-26 02:46:00,
2013-01-25 21:51:00,17.7,17.0,29.67,North,354,3.0,7.0,97,0.00,,,0.00,0000,Weather View 32 v70,2013-01-26 02:51:00,
2013-01-25 21:56:00,17.5,16.5,29.67,North,354,5.0,7.0,96,0.00,,,0.00,0000,Weather View 32 v70,2013-01-26 02:56:00,
2013-01-25 22:01:00,17.5,16.5,29.67,North,354,5.0,7.0,96,0.00,,,0.00,0000,Weather View 32 v70,2013-01-26 03:01:00,
2013-01-25 22:06:00,17.4,16.4,29.66,North,354,6.0,6.0,96,0.00,,,0.00,0000,Weather View 32 v70,2013-01-26 03:06:00,
2013-01-25 22:11:00,17.1,16.2,29.67,North,354,5.0,7.0,96,0.00,,,0.00,0000,Weather View 32 v70,2013-01-26 03:11:00,
2013-01-25 22:16:00,17.1,16.2,29.66,North,354,2.0,7.0,96,0.00,,,0.00,0000,Weather View 32 v70,2013-01-26 03:16:00,
2013-01-25 22:21:00,17.0,16.1,29.66,North,354,5.0,7.0,96,0.00,,,0.00,0000,Weather View 32 v70,2013-01-26 03:21:00,
2013-01-25 22:26:00,16.9,16.0,29.66,North,354,4.0,7.0,96,0.00,,,0.00,0000,Weather View 32 v70,2013-01-26 03:26:00,
2013-01-25 22:31:00,16.8,15.8,29.66,North,354,5.0,7.0,96,0.00,,,0.00,0000,Weather View 32 v70,2013-01-26 03:31:00,
2013-01-25 22:36:00,16.8,15.8,29.66,North,354,4.0,7.0,96,0.00,,,0.00,0000,Weather View 32 v70,2013-01-26 03:36:00,
2013-01-25 22:41:00,16.7,15.7,29.66,North,354,4.0,8.0,96,0.00,,,0.00,0000,Weather View 32 v70,2013-01-26 03:41:00,
2013-01-25 22:46:00,16.6,15.6,29.66,North,354,5.0,8.0,96,0.00,,,0.00,0000,Weather View 32 v70,2013-01-26 03:46:00,
2013-01-25 22:51:00,16.3,15.4,29.66,North,354,4.0,8.0,96,0.00,,,0.00,0000,Weather View 32 v70,2013-01-26 03:51:00,
2013-01-25 22:56:00,16.5,15.5,29.66,North,0,6.0,8.0,96,0.00,,,0.00,0000,Weather View 32 v70,2013-01-26 03:56:00,
2013-01-25 23:01:00,16.5,15.5,29.66,NNE,17,6.0,8.0,96,0.00,,,0.00,0000,Weather View 32 v70,2013-01-26 04:01:00,
2013-01-25 23:06:00,16.2,15.3,29.66,NNE,17,4.0,9.0,96,0.00,,,0.00,0000,Weather View 32 v70,2013-01-26 04:06:00,
2013-01-25 23:11:00,16.2,15.3,29.66,NNE,23,5.0,9.0,96,0.00,,,0.00,0000,Weather View 32 v70,2013-01-26 04:11:00,
2013-01-25 23:17:00,16.1,15.2,29.66,NNE,17,7.0,9.0,96,0.00,,,0.00,0000,Weather View 32 v70,2013-01-26 04:17:00,
2013-01-25 23:22:00,16.1,15.2,29.66,NNE,23,8.0,9.0,96,0.00,,,0.00,0000,Weather View 32 v70,2013-01-26 04:22:00,
2013-01-25 23:27:00,16.0,15.1,29.66,NNE,28,7.0,9.0,96,0.00,,,0.00,0000,Weather View 32 v70,2013-01-26 04:27:00,
2013-01-25 23:32:00,16.1,15.2,29.66,NNE,17,4.0,9.0,96,0.00,,,0.00,0000,Weather View 32 v70,2013-01-26 04:32:00,
2013-01-25 23:37:00,16.0,15.1,29.65,NNE,23,6.0,9.0,96,0.00,,,0.00,0000,Weather View 32 v70,2013-01-26 04:37:00,
2013-01-25 23:42:00,16.0,14.8,29.66,NNE,17,4.0,9.0,95,0.00,,,0.00,0000,Weather View 32 v70,2013-01-26 04:42:00,
2013-01-25 23:47:00,16.0,14.8,29.65,NNE,17,5.0,9.0,95,0.00,,,0.00,0000,Weather View 32 v70,2013-01-26 04:47:00,
2013-01-25 23:52:00,15.9,14.7,29.66,NNE,17,4.0,9.0,95,0.00,,,0.00,0000,Weather View 32 v70,2013-01-26 04:52:00,
2013-01-25 23:57:00,15.9,14.7,29.65,NNE,17,5.0,9.0,95,0.00,,,0.00,0000,Weather View 32 v70,2013-01-26 04:57:00,